sensor_id;sensor_type;location;lat;lon;timestamp;P1;durP1;ratioP1;P2;durP2;ratioP2
3347;SDS011;1687;49.540;8.574;2023-07-28T00:00:47;6.30;;;3.47;;
3347;SDS011;1687;49.540;8.574;2023-07-28T00:03:13;5.60;;;2.93;;
3347;SDS011;1687;49.540;8.574;2023-07-28T00:05:39;11.50;;;3.50;;
3347;SDS011;1687;49.540;8.574;2023-07-28T00:08:04;6.97;;;2.97;;
3347;SDS011;1687;49.540;8.574;2023-07-28T00:10:30;3.80;;;2.53;;
3347;SDS011;1687;49.540;8.574;2023-07-28T00:12:56;6.47;;;3.27;;
3347;SDS011;1687;49.540;8.574;2023-07-28T00:15:22;5.70;;;3.40;;
3347;SDS011;1687;49.540;8.574;2023-07-28T00:17:48;9.32;;;3.63;;
3347;SDS011;1687;49.540;8.574;2023-07-28T00:20:13;9.27;;;3.50;;
3347;SDS011;1687;49.540;8.574;2023-07-28T00:22:39;6.87;;;3.90;;
3347;SDS011;1687;49.540;8.574;2023-07-28T00:25:05;9.43;;;4.10;;
3347;SDS011;1687;49.540;8.574;2023-07-28T00:27:31;6.50;;;3.23;;
3347;SDS011;1687;49.540;8.574;2023-07-28T00:29:56;5.00;;;3.00;;
3347;SDS011;1687;49.540;8.574;2023-07-28T00:32:22;7.37;;;4.10;;
3347;SDS011;1687;49.540;8.574;2023-07-28T00:34:47;6.20;;;3.10;;
3347;SDS011;1687;49.540;8.574;2023-07-28T00:37:13;6.00;;;3.27;;
3347;SDS011;1687;49.540;8.574;2023-07-28T00:39:39;5.20;;;2.70;;
3347;SDS011;1687;49.540;8.574;2023-07-28T00:42:05;5.40;;;3.30;;
3347;SDS011;1687;49.540;8.574;2023-07-28T00:44:31;6.63;;;3.60;;
3347;SDS011;1687;49.540;8.574;2023-07-28T00:46:56;7.93;;;3.47;;
3347;SDS011;1687;49.540;8.574;2023-07-28T00:49:22;7.50;;;4.00;;
3347;SDS011;1687;49.540;8.574;2023-07-28T00:51:49;7.13;;;4.00;;
3347;SDS011;1687;49.540;8.574;2023-07-28T00:54:15;6.10;;;3.47;;
3347;SDS011;1687;49.540;8.574;2023-07-28T00:56:42;5.40;;;3.08;;
3347;SDS011;1687;49.540;8.574;2023-07-28T00:59:07;6.90;;;3.27;;
3347;SDS011;1687;49.540;8.574;2023-07-28T01:01:33;5.50;;;3.63;;
3347;SDS011;1687;49.540;8.574;2023-07-28T01:03:59;8.20;;;3.10;;
3347;SDS011;1687;49.540;8.574;2023-07-28T01:06:40;6.22;;;2.92;;
3347;SDS011;1687;49.540;8.574;2023-07-28T01:09:18;8.20;;;3.37;;
3347;SDS011;1687;49.540;8.574;2023-07-28T01:11:54;6.00;;;3.23;;
3347;SDS011;1687;49.540;8.574;2023-07-28T01:14:20;7.00;;;3.37;;
3347;SDS011;1687;49.540;8.574;2023-07-28T01:16:46;5.77;;;3.03;;
3347;SDS011;1687;49.540;8.574;2023-07-28T01:19:12;6.27;;;2.97;;
3347;SDS011;1687;49.540;8.574;2023-07-28T01:21:45;5.80;;;3.70;;
3347;SDS011;1687;49.540;8.574;2023-07-28T01:25:04;5.63;;;3.08;;
3347;SDS011;1687;49.540;8.574;2023-07-28T01:27:37;11.00;;;3.50;;
3347;SDS011;1687;49.540;8.574;2023-07-28T01:30:07;7.77;;;4.30;;
3347;SDS011;1687;49.540;8.574;2023-07-28T01:32:35;5.50;;;2.97;;
3347;SDS011;1687;49.540;8.574;2023-07-28T01:35:01;9.00;;;3.77;;
3347;SDS011;1687;49.540;8.574;2023-07-28T01:37:31;6.57;;;2.90;;
3347;SDS011;1687;49.540;8.574;2023-07-28T01:39:56;6.10;;;3.03;;
3347;SDS011;1687;49.540;8.574;2023-07-28T01:42:22;6.03;;;3.67;;
3347;SDS011;1687;49.540;8.574;2023-07-28T01:44:48;7.03;;;3.27;;
3347;SDS011;1687;49.540;8.574;2023-07-28T01:47:15;9.10;;;3.60;;
3347;SDS011;1687;49.540;8.574;2023-07-28T01:49:41;6.67;;;3.37;;
3347;SDS011;1687;49.540;8.574;2023-07-28T01:52:06;6.90;;;3.27;;
3347;SDS011;1687;49.540;8.574;2023-07-28T01:54:32;5.73;;;3.03;;
3347;SDS011;1687;49.540;8.574;2023-07-28T01:56:58;7.00;;;3.77;;
3347;SDS011;1687;49.540;8.574;2023-07-28T01:59:23;7.37;;;3.70;;
3347;SDS011;1687;49.540;8.574;2023-07-28T02:01:49;7.27;;;3.27;;
3347;SDS011;1687;49.540;8.574;2023-07-28T02:04:15;5.67;;;3.47;;
3347;SDS011;1687;49.540;8.574;2023-07-28T02:06:41;8.10;;;3.77;;
3347;SDS011;1687;49.540;8.574;2023-07-28T02:09:07;9.53;;;4.60;;
3347;SDS011;1687;49.540;8.574;2023-07-28T02:11:32;8.10;;;4.10;;
3347;SDS011;1687;49.540;8.574;2023-07-28T02:13:58;7.97;;;4.10;;
3347;SDS011;1687;49.540;8.574;2023-07-28T02:16:24;6.10;;;3.80;;
3347;SDS011;1687;49.540;8.574;2023-07-28T02:18:52;5.60;;;3.43;;
3347;SDS011;1687;49.540;8.574;2023-07-28T02:21:19;5.83;;;2.87;;
3347;SDS011;1687;49.540;8.574;2023-07-28T02:23:44;6.03;;;3.03;;
3347;SDS011;1687;49.540;8.574;2023-07-28T02:26:10;4.30;;;2.50;;
3347;SDS011;1687;49.540;8.574;2023-07-28T02:28:36;4.07;;;2.50;;
3347;SDS011;1687;49.540;8.574;2023-07-28T02:31:02;6.47;;;2.20;;
3347;SDS011;1687;49.540;8.574;2023-07-28T02:33:27;4.03;;;2.47;;
3347;SDS011;1687;49.540;8.574;2023-07-28T02:35:55;3.60;;;2.00;;
3347;SDS011;1687;49.540;8.574;2023-07-28T02:38:21;6.77;;;2.57;;
3347;SDS011;1687;49.540;8.574;2023-07-28T02:40:47;7.33;;;3.47;;
3347;SDS011;1687;49.540;8.574;2023-07-28T02:43:12;5.80;;;2.57;;
3347;SDS011;1687;49.540;8.574;2023-07-28T02:45:38;9.43;;;3.00;;
3347;SDS011;1687;49.540;8.574;2023-07-28T02:48:04;5.40;;;2.77;;
3347;SDS011;1687;49.540;8.574;2023-07-28T02:50:30;5.77;;;2.90;;
3347;SDS011;1687;49.540;8.574;2023-07-28T02:52:55;7.50;;;3.33;;
3347;SDS011;1687;49.540;8.574;2023-07-28T02:55:21;8.27;;;2.70;;
3347;SDS011;1687;49.540;8.574;2023-07-28T02:57:47;8.10;;;3.10;;
3347;SDS011;1687;49.540;8.574;2023-07-28T03:00:13;4.53;;;2.27;;
3347;SDS011;1687;49.540;8.574;2023-07-28T03:02:39;6.67;;;2.40;;
3347;SDS011;1687;49.540;8.574;2023-07-28T03:05:04;5.93;;;2.70;;
3347;SDS011;1687;49.540;8.574;2023-07-28T03:07:30;4.40;;;2.40;;
3347;SDS011;1687;49.540;8.574;2023-07-28T03:09:56;5.23;;;2.70;;
3347;SDS011;1687;49.540;8.574;2023-07-28T03:12:22;5.03;;;2.33;;
3347;SDS011;1687;49.540;8.574;2023-07-28T03:14:48;7.05;;;3.30;;
3347;SDS011;1687;49.540;8.574;2023-07-28T03:17:14;7.50;;;3.37;;
3347;SDS011;1687;49.540;8.574;2023-07-28T03:19:40;6.07;;;3.23;;
3347;SDS011;1687;49.540;8.574;2023-07-28T03:22:05;5.90;;;3.63;;
3347;SDS011;1687;49.540;8.574;2023-07-28T03:24:31;4.93;;;3.33;;
3347;SDS011;1687;49.540;8.574;2023-07-28T03:26:57;7.90;;;3.10;;
3347;SDS011;1687;49.540;8.574;2023-07-28T03:29:22;4.97;;;2.83;;
3347;SDS011;1687;49.540;8.574;2023-07-28T03:31:48;5.53;;;2.63;;
3347;SDS011;1687;49.540;8.574;2023-07-28T03:34:14;8.90;;;3.03;;
3347;SDS011;1687;49.540;8.574;2023-07-28T03:36:39;4.40;;;2.80;;
3347;SDS011;1687;49.540;8.574;2023-07-28T03:39:05;4.93;;;2.63;;
3347;SDS011;1687;49.540;8.574;2023-07-28T03:41:31;4.57;;;2.50;;
3347;SDS011;1687;49.540;8.574;2023-07-28T03:43:56;5.15;;;2.85;;
3347;SDS011;1687;49.540;8.574;2023-07-28T03:46:22;5.97;;;3.00;;
3347;SDS011;1687;49.540;8.574;2023-07-28T03:48:48;4.53;;;2.80;;
3347;SDS011;1687;49.540;8.574;2023-07-28T03:51:13;7.93;;;3.10;;
3347;SDS011;1687;49.540;8.574;2023-07-28T03:53:39;5.13;;;2.77;;
3347;SDS011;1687;49.540;8.574;2023-07-28T03:56:05;40.77;;;3.50;;
3347;SDS011;1687;49.540;8.574;2023-07-28T03:58:30;5.93;;;3.30;;
3347;SDS011;1687;49.540;8.574;2023-07-28T04:00:56;5.70;;;2.97;;
3347;SDS011;1687;49.540;8.574;2023-07-28T04:03:22;5.03;;;3.03;;
3347;SDS011;1687;49.540;8.574;2023-07-28T04:05:48;6.53;;;3.17;;
3347;SDS011;1687;49.540;8.574;2023-07-28T04:08:13;4.83;;;2.93;;
3347;SDS011;1687;49.540;8.574;2023-07-28T04:10:39;5.83;;;3.30;;
3347;SDS011;1687;49.540;8.574;2023-07-28T04:13:05;7.93;;;3.60;;
3347;SDS011;1687;49.540;8.574;2023-07-28T04:15:30;10.10;;;3.90;;
3347;SDS011;1687;49.540;8.574;2023-07-28T04:17:56;5.20;;;3.33;;
3347;SDS011;1687;49.540;8.574;2023-07-28T04:20:21;6.37;;;3.63;;
3347;SDS011;1687;49.540;8.574;2023-07-28T04:22:47;7.20;;;3.30;;
3347;SDS011;1687;49.540;8.574;2023-07-28T04:25:13;6.33;;;3.80;;
3347;SDS011;1687;49.540;8.574;2023-07-28T04:27:38;4.50;;;3.10;;
3347;SDS011;1687;49.540;8.574;2023-07-28T04:30:05;7.17;;;3.73;;
3347;SDS011;1687;49.540;8.574;2023-07-28T04:32:31;6.03;;;3.30;;
3347;SDS011;1687;49.540;8.574;2023-07-28T04:34:57;5.07;;;3.10;;
3347;SDS011;1687;49.540;8.574;2023-07-28T04:37:22;6.43;;;3.40;;
3347;SDS011;1687;49.540;8.574;2023-07-28T04:39:48;6.93;;;3.50;;
3347;SDS011;1687;49.540;8.574;2023-07-28T04:42:15;6.73;;;3.73;;
3347;SDS011;1687;49.540;8.574;2023-07-28T04:44:41;7.40;;;3.50;;
3347;SDS011;1687;49.540;8.574;2023-07-28T04:47:07;7.23;;;3.30;;
3347;SDS011;1687;49.540;8.574;2023-07-28T04:49:32;4.90;;;2.50;;
3347;SDS011;1687;49.540;8.574;2023-07-28T04:51:58;6.90;;;2.90;;
3347;SDS011;1687;49.540;8.574;2023-07-28T04:54:24;7.67;;;3.10;;
3347;SDS011;1687;49.540;8.574;2023-07-28T04:56:49;8.77;;;3.47;;
3347;SDS011;1687;49.540;8.574;2023-07-28T04:59:18;7.83;;;3.20;;
3347;SDS011;1687;49.540;8.574;2023-07-28T05:01:44;7.80;;;3.37;;
3347;SDS011;1687;49.540;8.574;2023-07-28T05:04:09;5.17;;;2.60;;
3347;SDS011;1687;49.540;8.574;2023-07-28T05:06:35;6.93;;;3.70;;
3347;SDS011;1687;49.540;8.574;2023-07-28T05:09:01;6.67;;;3.00;;
3347;SDS011;1687;49.540;8.574;2023-07-28T05:11:26;8.30;;;3.47;;
3347;SDS011;1687;49.540;8.574;2023-07-28T05:13:52;5.83;;;3.20;;
3347;SDS011;1687;49.540;8.574;2023-07-28T05:16:18;7.53;;;4.17;;
3347;SDS011;1687;49.540;8.574;2023-07-28T05:18:43;7.90;;;3.47;;
3347;SDS011;1687;49.540;8.574;2023-07-28T05:21:09;5.10;;;3.23;;
3347;SDS011;1687;49.540;8.574;2023-07-28T05:23:35;7.17;;;2.70;;
3347;SDS011;1687;49.540;8.574;2023-07-28T05:26:01;5.73;;;2.90;;
3347;SDS011;1687;49.540;8.574;2023-07-28T05:28:26;4.70;;;2.70;;
3347;SDS011;1687;49.540;8.574;2023-07-28T05:30:52;8.27;;;3.30;;
3347;SDS011;1687;49.540;8.574;2023-07-28T05:33:17;10.17;;;4.00;;
3347;SDS011;1687;49.540;8.574;2023-07-28T05:35:43;4.70;;;2.80;;
3347;SDS011;1687;49.540;8.574;2023-07-28T05:38:09;6.30;;;3.30;;
3347;SDS011;1687;49.540;8.574;2023-07-28T05:40:34;4.70;;;2.67;;
3347;SDS011;1687;49.540;8.574;2023-07-28T05:43:00;11.70;;;3.00;;
3347;SDS011;1687;49.540;8.574;2023-07-28T05:45:26;6.07;;;2.87;;
3347;SDS011;1687;49.540;8.574;2023-07-28T05:47:51;5.10;;;2.70;;
3347;SDS011;1687;49.540;8.574;2023-07-28T05:50:17;8.43;;;2.90;;
3347;SDS011;1687;49.540;8.574;2023-07-28T05:52:43;5.33;;;2.60;;
3347;SDS011;1687;49.540;8.574;2023-07-28T05:55:08;3.80;;;2.40;;
3347;SDS011;1687;49.540;8.574;2023-07-28T05:57:34;5.00;;;2.60;;
3347;SDS011;1687;49.540;8.574;2023-07-28T06:00:00;4.20;;;2.10;;
3347;SDS011;1687;49.540;8.574;2023-07-28T06:02:25;8.37;;;2.63;;
3347;SDS011;1687;49.540;8.574;2023-07-28T06:04:52;5.40;;;2.50;;
3347;SDS011;1687;49.540;8.574;2023-07-28T06:07:18;5.70;;;2.40;;
3347;SDS011;1687;49.540;8.574;2023-07-28T06:09:44;10.17;;;2.37;;
3347;SDS011;1687;49.540;8.574;2023-07-28T06:12:09;5.57;;;2.20;;
3347;SDS011;1687;49.540;8.574;2023-07-28T06:14:35;6.00;;;2.70;;
3347;SDS011;1687;49.540;8.574;2023-07-28T06:17:01;7.17;;;2.63;;
3347;SDS011;1687;49.540;8.574;2023-07-28T06:19:26;4.87;;;2.63;;
3347;SDS011;1687;49.540;8.574;2023-07-28T06:21:52;5.30;;;2.50;;
3347;SDS011;1687;49.540;8.574;2023-07-28T06:24:18;4.30;;;2.47;;
3347;SDS011;1687;49.540;8.574;2023-07-28T06:26:45;5.10;;;2.50;;
3347;SDS011;1687;49.540;8.574;2023-07-28T06:29:10;5.63;;;2.70;;
3347;SDS011;1687;49.540;8.574;2023-07-28T06:31:36;3.67;;;2.33;;
3347;SDS011;1687;49.540;8.574;2023-07-28T06:34:02;13.13;;;1.87;;
3347;SDS011;1687;49.540;8.574;2023-07-28T06:36:27;4.60;;;2.37;;
3347;SDS011;1687;49.540;8.574;2023-07-28T06:38:53;9.20;;;2.50;;
3347;SDS011;1687;49.540;8.574;2023-07-28T06:41:20;3.70;;;2.27;;
3347;SDS011;1687;49.540;8.574;2023-07-28T06:43:47;5.80;;;2.87;;
3347;SDS011;1687;49.540;8.574;2023-07-28T06:46:14;7.73;;;2.70;;
3347;SDS011;1687;49.540;8.574;2023-07-28T06:48:39;5.00;;;2.10;;
3347;SDS011;1687;49.540;8.574;2023-07-28T06:51:05;7.73;;;2.77;;
3347;SDS011;1687;49.540;8.574;2023-07-28T06:53:31;4.13;;;2.40;;
3347;SDS011;1687;49.540;8.574;2023-07-28T06:55:59;5.03;;;1.90;;
3347;SDS011;1687;49.540;8.574;2023-07-28T06:58:25;4.13;;;2.00;;
3347;SDS011;1687;49.540;8.574;2023-07-28T07:00:50;3.23;;;1.50;;
3347;SDS011;1687;49.540;8.574;2023-07-28T07:03:16;5.20;;;2.60;;
3347;SDS011;1687;49.540;8.574;2023-07-28T07:05:42;3.60;;;2.03;;
3347;SDS011;1687;49.540;8.574;2023-07-28T07:08:08;3.03;;;1.60;;
3347;SDS011;1687;49.540;8.574;2023-07-28T07:10:34;3.50;;;2.03;;
3347;SDS011;1687;49.540;8.574;2023-07-28T07:13:00;3.07;;;2.10;;
3347;SDS011;1687;49.540;8.574;2023-07-28T07:15:26;4.27;;;1.80;;
3347;SDS011;1687;49.540;8.574;2023-07-28T07:17:51;4.80;;;2.63;;
3347;SDS011;1687;49.540;8.574;2023-07-28T07:20:17;9.53;;;2.47;;
3347;SDS011;1687;49.540;8.574;2023-07-28T07:22:43;6.83;;;2.33;;
3347;SDS011;1687;49.540;8.574;2023-07-28T07:25:08;5.07;;;2.17;;
3347;SDS011;1687;49.540;8.574;2023-07-28T07:27:34;8.80;;;2.10;;
3347;SDS011;1687;49.540;8.574;2023-07-28T07:30:00;4.90;;;1.90;;
3347;SDS011;1687;49.540;8.574;2023-07-28T07:32:25;3.87;;;2.27;;
3347;SDS011;1687;49.540;8.574;2023-07-28T07:34:51;12.83;;;1.83;;
3347;SDS011;1687;49.540;8.574;2023-07-28T07:37:18;4.97;;;2.30;;
3347;SDS011;1687;49.540;8.574;2023-07-28T07:39:43;3.10;;;2.10;;
3347;SDS011;1687;49.540;8.574;2023-07-28T07:42:09;4.43;;;2.20;;
3347;SDS011;1687;49.540;8.574;2023-07-28T07:44:39;4.07;;;2.20;;
3347;SDS011;1687;49.540;8.574;2023-07-28T07:47:11;3.37;;;1.70;;
3347;SDS011;1687;49.540;8.574;2023-07-28T07:49:40;6.60;;;2.27;;
3347;SDS011;1687;49.540;8.574;2023-07-28T07:52:07;3.77;;;2.03;;
3347;SDS011;1687;49.540;8.574;2023-07-28T07:54:34;4.10;;;2.30;;
3347;SDS011;1687;49.540;8.574;2023-07-28T07:57:00;6.80;;;1.80;;
3347;SDS011;1687;49.540;8.574;2023-07-28T07:59:25;5.33;;;1.80;;
3347;SDS011;1687;49.540;8.574;2023-07-28T08:01:53;2.80;;;1.77;;
3347;SDS011;1687;49.540;8.574;2023-07-28T08:04:19;4.17;;;1.80;;
3347;SDS011;1687;49.540;8.574;2023-07-28T08:06:44;5.50;;;2.03;;
3347;SDS011;1687;49.540;8.574;2023-07-28T08:09:10;2.50;;;1.43;;
3347;SDS011;1687;49.540;8.574;2023-07-28T08:11:36;3.50;;;1.75;;
3347;SDS011;1687;49.540;8.574;2023-07-28T08:14:01;2.77;;;1.60;;
3347;SDS011;1687;49.540;8.574;2023-07-28T08:16:28;3.47;;;1.80;;
3347;SDS011;1687;49.540;8.574;2023-07-28T08:18:53;5.07;;;2.00;;
3347;SDS011;1687;49.540;8.574;2023-07-28T08:21:19;3.50;;;1.77;;
3347;SDS011;1687;49.540;8.574;2023-07-28T08:23:45;3.95;;;2.00;;
3347;SDS011;1687;49.540;8.574;2023-07-28T08:26:10;3.33;;;1.70;;
3347;SDS011;1687;49.540;8.574;2023-07-28T08:28:36;3.23;;;1.80;;
3347;SDS011;1687;49.540;8.574;2023-07-28T08:31:02;3.10;;;2.17;;
3347;SDS011;1687;49.540;8.574;2023-07-28T08:33:29;7.97;;;1.40;;
3347;SDS011;1687;49.540;8.574;2023-07-28T08:35:54;4.97;;;1.93;;
3347;SDS011;1687;49.540;8.574;2023-07-28T08:38:20;4.53;;;1.97;;
3347;SDS011;1687;49.540;8.574;2023-07-28T08:40:46;2.90;;;1.60;;
3347;SDS011;1687;49.540;8.574;2023-07-28T08:43:12;3.50;;;1.70;;
3347;SDS011;1687;49.540;8.574;2023-07-28T08:45:37;2.70;;;1.50;;
3347;SDS011;1687;49.540;8.574;2023-07-28T08:48:03;3.77;;;2.13;;
3347;SDS011;1687;49.540;8.574;2023-07-28T08:50:30;3.20;;;1.73;;
3347;SDS011;1687;49.540;8.574;2023-07-28T08:52:56;3.30;;;1.60;;
3347;SDS011;1687;49.540;8.574;2023-07-28T08:55:22;2.87;;;1.50;;
3347;SDS011;1687;49.540;8.574;2023-07-28T08:57:48;2.53;;;1.43;;
3347;SDS011;1687;49.540;8.574;2023-07-28T09:00:14;3.17;;;1.40;;
3347;SDS011;1687;49.540;8.574;2023-07-28T09:02:42;1.50;;;1.07;;
3347;SDS011;1687;49.540;8.574;2023-07-28T09:05:16;8.03;;;1.47;;
3347;SDS011;1687;49.540;8.574;2023-07-28T09:07:46;2.53;;;1.13;;
3347;SDS011;1687;49.540;8.574;2023-07-28T09:10:12;1.67;;;1.07;;
3347;SDS011;1687;49.540;8.574;2023-07-28T09:12:48;1.80;;;1.03;;
3347;SDS011;1687;49.540;8.574;2023-07-28T09:15:15;4.35;;;1.55;;
3347;SDS011;1687;49.540;8.574;2023-07-28T09:17:44;2.50;;;1.40;;
3347;SDS011;1687;49.540;8.574;2023-07-28T09:20:14;2.70;;;1.40;;
3347;SDS011;1687;49.540;8.574;2023-07-28T09:22:41;2.67;;;1.30;;
3347;SDS011;1687;49.540;8.574;2023-07-28T09:25:15;5.00;;;1.60;;
3347;SDS011;1687;49.540;8.574;2023-07-28T09:27:49;2.80;;;1.60;;
3347;SDS011;1687;49.540;8.574;2023-07-28T09:30:17;2.90;;;1.60;;
3347;SDS011;1687;49.540;8.574;2023-07-28T09:32:46;2.87;;;1.70;;
3347;SDS011;1687;49.540;8.574;2023-07-28T09:35:14;2.50;;;1.48;;
3347;SDS011;1687;49.540;8.574;2023-07-28T09:37:41;2.30;;;1.20;;
3347;SDS011;1687;49.540;8.574;2023-07-28T09:40:11;2.00;;;1.20;;
3347;SDS011;1687;49.540;8.574;2023-07-28T09:42:39;4.60;;;1.40;;
3347;SDS011;1687;49.540;8.574;2023-07-28T09:45:14;2.53;;;1.60;;
3347;SDS011;1687;49.540;8.574;2023-07-28T09:47:43;5.60;;;2.00;;
3347;SDS011;1687;49.540;8.574;2023-07-28T09:50:10;2.20;;;1.50;;
3347;SDS011;1687;49.540;8.574;2023-07-28T09:52:43;2.30;;;1.30;;
3347;SDS011;1687;49.540;8.574;2023-07-28T09:55:12;3.30;;;1.77;;
3347;SDS011;1687;49.540;8.574;2023-07-28T09:57:44;1.75;;;1.25;;
3347;SDS011;1687;49.540;8.574;2023-07-28T10:00:19;2.80;;;1.80;;
3347;SDS011;1687;49.540;8.574;2023-07-28T10:02:48;2.63;;;1.50;;
3347;SDS011;1687;49.540;8.574;2023-07-28T10:05:15;2.43;;;1.40;;
3347;SDS011;1687;49.540;8.574;2023-07-28T10:07:42;2.10;;;1.40;;
3347;SDS011;1687;49.540;8.574;2023-07-28T10:10:11;2.03;;;1.27;;
3347;SDS011;1687;49.540;8.574;2023-07-28T10:15:18;2.80;;;1.50;;
3347;SDS011;1687;49.540;8.574;2023-07-28T10:17:53;2.43;;;1.17;;
3347;SDS011;1687;49.540;8.574;2023-07-28T10:20:29;1.50;;;0.90;;
3347;SDS011;1687;49.540;8.574;2023-07-28T10:23:22;3.67;;;1.63;;
3347;SDS011;1687;49.540;8.574;2023-07-28T10:25:55;3.30;;;1.67;;
3347;SDS011;1687;49.540;8.574;2023-07-28T10:31:07;2.60;;;1.50;;
3347;SDS011;1687;49.540;8.574;2023-07-28T10:33:43;3.00;;;1.60;;
3347;SDS011;1687;49.540;8.574;2023-07-28T10:36:11;3.00;;;1.40;;
3347;SDS011;1687;49.540;8.574;2023-07-28T10:38:44;2.80;;;1.40;;
3347;SDS011;1687;49.540;8.574;2023-07-28T10:43:43;1.93;;;1.10;;
3347;SDS011;1687;49.540;8.574;2023-07-28T10:46:12;2.33;;;1.30;;
3347;SDS011;1687;49.540;8.574;2023-07-28T10:48:45;2.67;;;1.33;;
3347;SDS011;1687;49.540;8.574;2023-07-28T10:51:20;3.80;;;1.20;;
3347;SDS011;1687;49.540;8.574;2023-07-28T10:53:58;2.63;;;1.80;;
3347;SDS011;1687;49.540;8.574;2023-07-28T10:56:27;2.90;;;1.20;;
3347;SDS011;1687;49.540;8.574;2023-07-28T10:58:59;1.92;;;1.23;;
3347;SDS011;1687;49.540;8.574;2023-07-28T11:01:31;2.92;;;1.70;;
3347;SDS011;1687;49.540;8.574;2023-07-28T11:04:05;3.23;;;1.77;;
3347;SDS011;1687;49.540;8.574;2023-07-28T11:06:42;2.03;;;1.27;;
3347;SDS011;1687;49.540;8.574;2023-07-28T11:09:17;3.67;;;2.17;;
3347;SDS011;1687;49.540;8.574;2023-07-28T11:11:45;2.63;;;1.80;;
3347;SDS011;1687;49.540;8.574;2023-07-28T11:14:11;2.43;;;1.27;;
3347;SDS011;1687;49.540;8.574;2023-07-28T11:16:40;3.30;;;1.60;;
3347;SDS011;1687;49.540;8.574;2023-07-28T11:19:07;2.83;;;1.70;;
3347;SDS011;1687;49.540;8.574;2023-07-28T11:21:39;4.32;;;1.48;;
3347;SDS011;1687;49.540;8.574;2023-07-28T11:24:06;2.50;;;1.70;;
3347;SDS011;1687;49.540;8.574;2023-07-28T11:26:34;3.03;;;1.83;;
3347;SDS011;1687;49.540;8.574;2023-07-28T11:29:00;3.07;;;2.00;;
3347;SDS011;1687;49.540;8.574;2023-07-28T11:31:26;3.77;;;2.07;;
3347;SDS011;1687;49.540;8.574;2023-07-28T11:33:52;3.90;;;2.03;;
3347;SDS011;1687;49.540;8.574;2023-07-28T11:36:21;11.60;;;2.40;;
3347;SDS011;1687;49.540;8.574;2023-07-28T11:38:55;2.07;;;1.43;;
3347;SDS011;1687;49.540;8.574;2023-07-28T11:41:24;5.30;;;1.83;;
3347;SDS011;1687;49.540;8.574;2023-07-28T11:43:51;3.00;;;1.90;;
3347;SDS011;1687;49.540;8.574;2023-07-28T11:46:33;5.60;;;1.97;;
3347;SDS011;1687;49.540;8.574;2023-07-28T11:49:08;6.23;;;2.40;;
3347;SDS011;1687;49.540;8.574;2023-07-28T11:51:48;3.10;;;1.90;;
3347;SDS011;1687;49.540;8.574;2023-07-28T11:54:17;2.33;;;1.50;;
3347;SDS011;1687;49.540;8.574;2023-07-28T11:56:47;4.70;;;1.73;;
3347;SDS011;1687;49.540;8.574;2023-07-28T11:59:15;4.00;;;1.93;;
3347;SDS011;1687;49.540;8.574;2023-07-28T12:04:23;3.70;;;2.50;;
3347;SDS011;1687;49.540;8.574;2023-07-28T12:07:02;3.80;;;2.00;;
3347;SDS011;1687;49.540;8.574;2023-07-28T12:12:10;3.23;;;1.90;;
3347;SDS011;1687;49.540;8.574;2023-07-28T12:14:36;2.37;;;1.70;;
3347;SDS011;1687;49.540;8.574;2023-07-28T12:17:03;3.40;;;1.70;;
3347;SDS011;1687;49.540;8.574;2023-07-28T12:19:40;3.40;;;1.87;;
3347;SDS011;1687;49.540;8.574;2023-07-28T12:22:27;2.53;;;1.50;;
3347;SDS011;1687;49.540;8.574;2023-07-28T12:24:54;3.70;;;1.77;;
3347;SDS011;1687;49.540;8.574;2023-07-28T12:27:19;2.70;;;1.60;;
3347;SDS011;1687;49.540;8.574;2023-07-28T12:29:48;5.40;;;1.80;;
3347;SDS011;1687;49.540;8.574;2023-07-28T12:32:15;3.10;;;1.80;;
3347;SDS011;1687;49.540;8.574;2023-07-28T12:34:40;3.60;;;1.80;;
3347;SDS011;1687;49.540;8.574;2023-07-28T12:37:06;2.43;;;1.50;;
3347;SDS011;1687;49.540;8.574;2023-07-28T12:39:33;2.10;;;1.40;;
3347;SDS011;1687;49.540;8.574;2023-07-28T12:42:04;4.30;;;1.80;;
3347;SDS011;1687;49.540;8.574;2023-07-28T12:44:31;3.87;;;1.73;;
3347;SDS011;1687;49.540;8.574;2023-07-28T12:46:57;2.47;;;1.70;;
3347;SDS011;1687;49.540;8.574;2023-07-28T12:49:23;2.70;;;1.67;;
3347;SDS011;1687;49.540;8.574;2023-07-28T12:51:49;2.27;;;1.50;;
3347;SDS011;1687;49.540;8.574;2023-07-28T12:54:14;2.40;;;1.40;;
3347;SDS011;1687;49.540;8.574;2023-07-28T12:56:40;2.90;;;1.43;;
3347;SDS011;1687;49.540;8.574;2023-07-28T12:59:06;2.57;;;1.30;;
3347;SDS011;1687;49.540;8.574;2023-07-28T13:01:32;1.83;;;1.10;;
3347;SDS011;1687;49.540;8.574;2023-07-28T13:03:59;6.80;;;1.37;;
3347;SDS011;1687;49.540;8.574;2023-07-28T13:06:26;2.33;;;1.50;;
3347;SDS011;1687;49.540;8.574;2023-07-28T13:08:51;2.00;;;1.20;;
3347;SDS011;1687;49.540;8.574;2023-07-28T13:11:17;1.77;;;0.93;;
3347;SDS011;1687;49.540;8.574;2023-07-28T13:13:42;1.77;;;1.10;;
3347;SDS011;1687;49.540;8.574;2023-07-28T13:16:08;1.70;;;1.00;;
3347;SDS011;1687;49.540;8.574;2023-07-28T13:18:34;4.67;;;2.53;;
3347;SDS011;1687;49.540;8.574;2023-07-28T13:20:59;2.00;;;1.30;;
3347;SDS011;1687;49.540;8.574;2023-07-28T13:23:25;2.90;;;1.57;;
3347;SDS011;1687;49.540;8.574;2023-07-28T13:25:51;2.03;;;1.10;;
3347;SDS011;1687;49.540;8.574;2023-07-28T13:28:17;2.60;;;1.00;;
3347;SDS011;1687;49.540;8.574;2023-07-28T13:30:43;2.83;;;1.57;;
3347;SDS011;1687;49.540;8.574;2023-07-28T13:33:09;2.93;;;1.00;;
3347;SDS011;1687;49.540;8.574;2023-07-28T13:35:34;2.23;;;1.17;;
3347;SDS011;1687;49.540;8.574;2023-07-28T13:38:00;2.15;;;1.10;;
3347;SDS011;1687;49.540;8.574;2023-07-28T13:40:26;2.70;;;1.50;;
3347;SDS011;1687;49.540;8.574;2023-07-28T13:42:51;2.43;;;1.60;;
3347;SDS011;1687;49.540;8.574;2023-07-28T13:45:18;3.17;;;1.47;;
3347;SDS011;1687;49.540;8.574;2023-07-28T13:47:43;4.10;;;2.40;;
3347;SDS011;1687;49.540;8.574;2023-07-28T13:50:09;3.47;;;1.70;;
3347;SDS011;1687;49.540;8.574;2023-07-28T13:52:35;2.30;;;1.60;;
3347;SDS011;1687;49.540;8.574;2023-07-28T13:55:00;3.60;;;1.80;;
3347;SDS011;1687;49.540;8.574;2023-07-28T13:57:27;5.30;;;2.20;;
3347;SDS011;1687;49.540;8.574;2023-07-28T13:59:53;2.88;;;1.33;;
3347;SDS011;1687;49.540;8.574;2023-07-28T14:02:18;3.80;;;2.03;;
3347;SDS011;1687;49.540;8.574;2023-07-28T14:04:44;4.63;;;2.50;;
3347;SDS011;1687;49.540;8.574;2023-07-28T14:07:10;3.07;;;1.60;;
3347;SDS011;1687;49.540;8.574;2023-07-28T14:09:35;4.40;;;2.20;;
3347;SDS011;1687;49.540;8.574;2023-07-28T14:12:02;3.97;;;1.80;;
3347;SDS011;1687;49.540;8.574;2023-07-28T14:14:29;2.57;;;1.63;;
3347;SDS011;1687;49.540;8.574;2023-07-28T14:16:54;5.33;;;2.40;;
3347;SDS011;1687;49.540;8.574;2023-07-28T14:19:20;4.20;;;2.90;;
3347;SDS011;1687;49.540;8.574;2023-07-28T14:21:46;6.60;;;3.40;;
3347;SDS011;1687;49.540;8.574;2023-07-28T14:24:11;6.37;;;2.70;;
3347;SDS011;1687;49.540;8.574;2023-07-28T14:26:37;6.50;;;2.60;;
3347;SDS011;1687;49.540;8.574;2023-07-28T14:29:03;5.50;;;3.20;;
3347;SDS011;1687;49.540;8.574;2023-07-28T14:31:29;6.20;;;3.43;;
3347;SDS011;1687;49.540;8.574;2023-07-28T14:33:55;6.30;;;3.67;;
3347;SDS011;1687;49.540;8.574;2023-07-28T14:36:20;7.27;;;3.60;;
3347;SDS011;1687;49.540;8.574;2023-07-28T14:38:46;9.87;;;3.50;;
3347;SDS011;1687;49.540;8.574;2023-07-28T14:41:12;7.10;;;3.53;;
3347;SDS011;1687;49.540;8.574;2023-07-28T14:43:37;6.67;;;3.37;;
3347;SDS011;1687;49.540;8.574;2023-07-28T14:46:03;8.03;;;4.00;;
3347;SDS011;1687;49.540;8.574;2023-07-28T14:48:29;9.77;;;3.10;;
3347;SDS011;1687;49.540;8.574;2023-07-28T14:50:55;6.20;;;2.93;;
3347;SDS011;1687;49.540;8.574;2023-07-28T14:53:36;6.83;;;2.80;;
3347;SDS011;1687;49.540;8.574;2023-07-28T14:56:05;7.23;;;3.27;;
3347;SDS011;1687;49.540;8.574;2023-07-28T14:58:31;9.70;;;3.30;;
3347;SDS011;1687;49.540;8.574;2023-07-28T15:00:57;5.87;;;3.20;;
3347;SDS011;1687;49.540;8.574;2023-07-28T15:03:25;5.67;;;3.40;;
3347;SDS011;1687;49.540;8.574;2023-07-28T15:05:55;4.10;;;2.33;;
3347;SDS011;1687;49.540;8.574;2023-07-28T15:08:21;4.70;;;2.60;;
3347;SDS011;1687;49.540;8.574;2023-07-28T15:10:47;5.37;;;3.00;;
3347;SDS011;1687;49.540;8.574;2023-07-28T15:13:13;7.77;;;2.73;;
3347;SDS011;1687;49.540;8.574;2023-07-28T15:15:38;3.67;;;2.43;;
3347;SDS011;1687;49.540;8.574;2023-07-28T15:18:04;6.53;;;3.27;;
3347;SDS011;1687;49.540;8.574;2023-07-28T15:20:30;6.17;;;2.73;;
3347;SDS011;1687;49.540;8.574;2023-07-28T15:22:56;6.97;;;3.00;;
3347;SDS011;1687;49.540;8.574;2023-07-28T15:25:21;4.47;;;3.00;;
3347;SDS011;1687;49.540;8.574;2023-07-28T15:27:47;4.80;;;2.50;;